Time;durP1;ratioP1;P1;durP2;ratioP2;P2;SDS_P1;SDS_P2;PMS_P1;PMS_P2;Temp;Humidity;BMP_temperature;BMP_pressure;BME280_temperature;BME280_humidity;BME280_pressure;Samples;Min_cycle;Max_cycle;Signal;HPM_P1;HPM_P2
2022/08/28 00:00:46;;;;;;;8.55;2.38;;;15.50;99.90;;;;;;5104487;27;38170;-60
2022/08/28 00:03:14;;;;;;;7.25;2.08;;;15.50;99.90;;;;;;5104384;27;38152;-59
2022/08/28 00:05:42;;;;;;;12.65;3.05;;;15.50;99.90;;;;;;5104965;27;37644;-59
2022/08/28 00:08:11;;;;;;;7.65;2.50;;;15.50;99.90;;;;;;5102196;27;37040;-60
2022/08/28 00:10:39;;;;;;;10.60;2.80;;;15.50;99.90;;;;;;5104438;27;37097;-59
2022/08/28 00:13:14;;;;;;;9.80;2.92;;;15.50;99.90;;;;;;5104281;27;37842;-60
2022/08/28 00:15:41;;;;;;;6.85;2.13;;;15.40;99.90;;;;;;5105058;27;37333;-60
2022/08/28 00:18:08;;;;;;;7.38;2.22;;;15.40;99.90;;;;;;5105010;27;36684;-59
2022/08/28 00:20:37;;;;;;;12.45;2.13;;;15.40;99.90;;;;;;5104844;27;40624;-59
2022/08/28 00:23:05;;;;;;;15.60;3.03;;;15.40;99.90;;;;;;5105478;27;38022;-60
2022/08/28 00:25:33;;;;;;;8.77;2.28;;;15.40;99.90;;;;;;5103954;27;38388;-59
2022/08/28 00:28:03;;;;;;;8.75;2.40;;;15.40;99.90;;;;;;5105890;27;36628;-59
2022/08/28 00:30:34;;;;;;;5.47;2.03;;;15.30;99.90;;;;;;5102527;27;37761;-60
2022/08/28 00:33:05;;;;;;;8.27;2.33;;;15.40;99.90;;;;;;5104657;27;36754;-60
2022/08/28 00:35:33;;;;;;;10.02;2.70;;;15.30;99.90;;;;;;5104670;27;38398;-60
2022/08/28 00:38:00;;;;;;;7.88;2.70;;;15.40;99.90;;;;;;5105191;27;36928;-60
2022/08/28 00:40:30;;;;;;;7.25;2.47;;;15.30;99.90;;;;;;5104586;27;38979;-59
2022/08/28 00:42:57;;;;;;;9.43;2.30;;;15.40;99.90;;;;;;5105096;27;37500;-59
2022/08/28 00:45:25;;;;;;;10.20;2.00;;;15.40;99.90;;;;;;5105139;27;38316;-58
2022/08/28 00:47:54;;;;;;;11.00;2.28;;;15.30;99.90;;;;;;5103047;27;35367;-59
2022/08/28 00:50:25;;;;;;;9.20;2.55;;;15.30;99.90;;;;;;5105031;27;38407;-59
2022/08/28 00:52:59;;;;;;;10.80;3.33;;;15.30;99.90;;;;;;5105950;27;20164;-59
2022/08/28 00:55:29;;;;;;;10.18;2.10;;;15.20;99.90;;;;;;5105494;27;37237;-59
2022/08/28 00:57:59;;;;;;;12.20;2.45;;;15.20;99.90;;;;;;5103936;27;36833;-59
2022/08/28 01:00:31;;;;;;;8.52;2.38;;;15.20;99.90;;;;;;5104309;27;37061;-59
2022/08/28 01:03:00;;;;;;;8.27;2.65;;;15.10;99.90;;;;;;5104141;27;37479;-59
2022/08/28 01:05:28;;;;;;;7.38;2.10;;;15.10;99.90;;;;;;5105626;27;37144;-59
2022/08/28 01:07:57;;;;;;;10.13;2.22;;;15.10;99.90;;;;;;5104989;27;35351;-59
2022/08/28 01:10:27;;;;;;;12.10;2.50;;;15.10;99.90;;;;;;5104168;27;37519;-59
2022/08/28 01:12:57;;;;;;;9.50;2.63;;;15.10;99.90;;;;;;5105405;27;39865;-59
2022/08/28 01:15:33;;;;;;;9.40;2.55;;;15.10;99.90;;;;;;5103503;27;36226;-59
2022/08/28 01:18:05;;;;;;;11.00;3.55;;;15.10;99.90;;;;;;5106171;27;39279;-59
2022/08/28 01:20:38;;;;;;;8.15;2.17;;;15.20;99.90;;;;;;5104738;27;37568;-59
2022/08/28 01:23:12;;;;;;;8.00;2.15;;;15.10;99.90;;;;;;5104712;27;38801;-59
2022/08/28 01:25:42;;;;;;;7.75;2.38;;;15.10;99.90;;;;;;5102705;27;38371;-60
2022/08/28 01:28:12;;;;;;;8.73;2.78;;;15.10;99.90;;;;;;5106234;27;36921;-59
2022/08/28 01:30:40;;;;;;;9.13;2.30;;;15.10;99.90;;;;;;5103671;27;37407;-59
2022/08/28 01:33:08;;;;;;;7.15;2.10;;;15.10;99.90;;;;;;5105233;27;39975;-59
2022/08/28 01:35:39;;;;;;;8.05;1.80;;;15.10;99.90;;;;;;5104933;27;36244;-59
2022/08/28 01:38:07;;;;;;;8.80;2.42;;;15.10;99.90;;;;;;5104558;27;36576;-59
2022/08/28 01:40:37;;;;;;;11.15;2.50;;;15.10;99.90;;;;;;5105672;27;38493;-59
2022/08/28 01:43:11;;;;;;;10.75;2.30;;;15.10;99.90;;;;;;5104979;27;37727;-59
2022/08/28 01:45:38;;;;;;;8.80;2.05;;;15.10;99.90;;;;;;5104037;27;37051;-59
2022/08/28 01:48:07;;;;;;;10.70;2.90;;;15.10;99.90;;;;;;5103597;27;36670;-59
2022/08/28 01:50:34;;;;;;;9.07;2.28;;;15.10;99.90;;;;;;5105088;27;38215;-59
2022/08/28 01:53:04;;;;;;;8.85;2.67;;;15.10;99.90;;;;;;5105126;27;37566;-59
2022/08/28 01:55:32;;;;;;;7.00;2.00;;;15.10;99.90;;;;;;5104804;27;38015;-59
2022/08/28 01:57:59;;;;;;;6.57;1.85;;;15.10;99.90;;;;;;5104569;27;38411;-58
2022/08/28 02:00:29;;;;;;;9.88;2.42;;;15.10;99.90;;;;;;5104211;27;38374;-59
2022/08/28 02:02:58;;;;;;;8.52;1.98;;;15.00;99.90;;;;;;5103538;27;37713;-58
2022/08/28 02:05:28;;;;;;;12.07;2.30;;;15.00;99.90;;;;;;5104097;27;38757;-60
2022/08/28 02:07:56;;;;;;;6.47;2.00;;;15.00;99.90;;;;;;5104722;27;37683;-59
2022/08/28 02:10:24;;;;;;;14.15;3.20;;;14.90;99.90;;;;;;5105516;27;39357;-60
2022/08/28 02:12:52;;;;;;;9.18;2.53;;;14.90;99.90;;;;;;5104206;27;37302;-58
2022/08/28 02:15:19;;;;;;;9.90;2.45;;;14.90;99.90;;;;;;5104715;27;37532;-59
2022/08/28 02:17:48;;;;;;;6.82;1.90;;;14.90;99.90;;;;;;5104379;27;35303;-59
2022/08/28 02:20:15;;;;;;;9.00;2.33;;;14.90;99.90;;;;;;5104732;27;38509;-58
2022/08/28 02:22:43;;;;;;;7.63;2.20;;;14.90;99.90;;;;;;5104647;27;36503;-58
2022/08/28 02:25:12;;;;;;;8.32;2.03;;;14.80;99.90;;;;;;5104873;27;37611;-59
2022/08/28 02:27:40;;;;;;;11.82;2.30;;;14.80;99.90;;;;;;5104606;27;36468;-59
2022/08/28 02:30:10;;;;;;;9.27;2.00;;;14.80;99.90;;;;;;5104578;27;37552;-59
2022/08/28 02:32:38;;;;;;;5.45;1.88;;;14.70;99.90;;;;;;5102062;27;37697;-59
2022/08/28 02:35:09;;;;;;;6.43;1.88;;;14.80;99.90;;;;;;5102657;27;37658;-59
2022/08/28 02:37:37;;;;;;;8.90;2.15;;;14.70;99.90;;;;;;5106260;27;36273;-59
2022/08/28 02:40:05;;;;;;;9.52;2.40;;;14.70;99.90;;;;;;5108599;27;37333;-59
2022/08/28 02:42:32;;;;;;;9.73;2.47;;;14.70;99.90;;;;;;5106527;27;37786;-59
2022/08/28 02:45:00;;;;;;;8.15;2.00;;;14.70;99.90;;;;;;5107213;27;37485;-59
2022/08/28 02:47:27;;;;;;;8.48;2.30;;;14.60;99.90;;;;;;5106983;27;36715;-59
2022/08/28 02:49:55;;;;;;;9.23;2.47;;;14.60;99.90;;;;;;5105623;27;39343;-59
2022/08/28 02:52:23;;;;;;;6.50;2.00;;;14.60;99.90;;;;;;5106619;27;34892;-58
2022/08/28 02:54:51;;;;;;;11.60;2.55;;;14.60;99.90;;;;;;5108474;27;36281;-59
2022/08/28 02:57:18;;;;;;;4.30;1.70;;;14.60;99.90;;;;;;5107739;27;39109;-59
2022/08/28 02:59:46;;;;;;;8.10;1.90;;;14.60;99.90;;;;;;5107692;27;37972;-60
2022/08/28 03:02:14;;;;;;;8.95;2.15;;;14.50;99.90;;;;;;5107134;27;38794;-59
2022/08/28 03:04:41;;;;;;;7.18;2.00;;;14.50;99.90;;;;;;5107125;27;39066;-58
2022/08/28 03:07:12;;;;;;;6.97;1.70;;;14.50;99.90;;;;;;5105808;27;39447;-59
2022/08/28 03:09:42;;;;;;;10.10;1.98;;;14.50;99.90;;;;;;5106658;27;37546;-59
2022/08/28 03:12:12;;;;;;;6.45;1.85;;;14.50;99.90;;;;;;5107759;27;40108;-59
2022/08/28 03:14:39;;;;;;;5.63;1.67;;;14.50;99.90;;;;;;5106357;27;37292;-59
2022/08/28 03:17:07;;;;;;;7.47;1.80;;;14.60;99.90;;;;;;5107264;27;36168;-59
2022/08/28 03:19:34;;;;;;;7.03;1.85;;;14.60;99.90;;;;;;5105654;27;38022;-59
2022/08/28 03:22:01;;;;;;;7.10;1.85;;;14.60;99.90;;;;;;5106674;27;38536;-58
2022/08/28 03:24:28;;;;;;;7.25;1.92;;;14.60;99.90;;;;;;5107083;27;35985;-58
2022/08/28 03:26:57;;;;;;;4.78;1.58;;;14.60;99.90;;;;;;5107371;27;35236;-59
2022/08/28 03:29:24;;;;;;;7.10;2.47;;;14.60;99.90;;;;;;5106879;27;37449;-59
2022/08/28 03:31:51;;;;;;;10.77;2.38;;;14.60;99.90;;;;;;5106617;27;40435;-60
2022/08/28 03:34:19;;;;;;;6.85;1.60;;;14.60;99.90;;;;;;5105836;27;37143;-59
2022/08/28 03:36:47;;;;;;;8.00;1.80;;;14.60;99.90;;;;;;5105042;27;36904;-58
2022/08/28 03:39:14;;;;;;;8.73;2.03;;;14.60;99.90;;;;;;5106913;27;36580;-59
2022/08/28 03:41:41;;;;;;;8.57;1.80;;;14.60;99.90;;;;;;5105749;27;38431;-58
2022/08/28 03:44:10;;;;;;;6.50;1.60;;;14.60;99.90;;;;;;5106551;27;38126;-59
2022/08/28 03:46:39;;;;;;;7.43;1.40;;;14.50;99.90;;;;;;5106952;27;36521;-60
2022/08/28 03:49:06;;;;;;;7.10;1.73;;;14.60;99.90;;;;;;5104877;27;37695;-59
2022/08/28 03:51:35;;;;;;;11.15;2.65;;;14.60;99.90;;;;;;5106447;27;36675;-59
2022/08/28 03:54:03;;;;;;;10.05;2.67;;;14.70;99.90;;;;;;5106736;27;36270;-58
2022/08/28 03:56:31;;;;;;;8.65;1.90;;;14.70;99.90;;;;;;5107009;27;36460;-58
2022/08/28 03:59:00;;;;;;;8.05;1.92;;;14.70;99.90;;;;;;5106849;27;37752;-58
2022/08/28 04:01:29;;;;;;;7.80;2.03;;;14.70;99.90;;;;;;5107030;27;36484;-58
2022/08/28 04:03:56;;;;;;;7.78;1.95;;;14.70;99.90;;;;;;5105226;27;36159;-59
2022/08/28 04:06:24;;;;;;;6.43;2.15;;;14.70;99.90;;;;;;5105626;27;37399;-58
2022/08/28 04:08:51;;;;;;;5.82;1.60;;;14.70;99.90;;;;;;5105347;27;37654;-58
2022/08/28 04:11:19;;;;;;;9.73;1.83;;;14.70;99.90;;;;;;5106267;27;36549;-60
2022/08/28 04:13:46;;;;;;;10.95;3.17;;;14.80;99.90;;;;;;5105686;27;37407;-58
2022/08/28 04:16:17;;;;;;;9.68;2.05;;;14.70;99.90;;;;;;5106456;27;36985;-58
2022/08/28 04:18:48;;;;;;;9.50;2.03;;;14.80;99.90;;;;;;5106614;27;37122;-59
2022/08/28 04:21:18;;;;;;;7.28;1.70;;;14.70;99.90;;;;;;5106522;27;38007;-58
2022/08/28 04:23:47;;;;;;;7.60;1.65;;;14.80;99.90;;;;;;5105417;27;37185;-59
2022/08/28 04:26:17;;;;;;;10.82;1.52;;;14.70;99.90;;;;;;5105589;27;37770;-59
2022/08/28 04:28:45;;;;;;;8.98;1.70;;;14.70;99.90;;;;;;5105344;27;37413;-59
2022/08/28 04:31:13;;;;;;;9.35;1.58;;;14.70;99.90;;;;;;5104647;27;36597;-59
2022/08/28 04:33:41;;;;;;;6.55;2.10;;;14.70;99.90;;;;;;5105692;27;36231;-59
2022/08/28 04:36:12;;;;;;;7.25;1.98;;;14.70;99.90;;;;;;5105503;27;37387;-59
2022/08/28 04:38:40;;;;;;;6.25;1.98;;;14.60;99.90;;;;;;5105293;27;38477;-58
2022/08/28 04:41:09;;;;;;;6.47;1.90;;;14.60;99.90;;;;;;5104235;27;39032;-59
2022/08/28 04:43:37;;;;;;;7.07;1.65;;;14.60;99.90;;;;;;5105506;27;38041;-60
2022/08/28 04:46:05;;;;;;;8.75;2.03;;;14.60;99.90;;;;;;5104180;27;37786;-58
2022/08/28 04:48:33;;;;;;;8.85;1.90;;;14.60;99.90;;;;;;5104151;27;38956;-58
2022/08/28 04:51:00;;;;;;;7.28;2.00;;;14.70;99.90;;;;;;5104231;27;36545;-58
2022/08/28 04:53:29;;;;;;;4.45;1.63;;;14.70;99.90;;;;;;5105998;27;37948;-58
2022/08/28 04:55:58;;;;;;;5.47;1.55;;;14.70;99.90;;;;;;5103764;27;36515;-58
2022/08/28 04:58:26;;;;;;;6.57;1.35;;;14.80;99.90;;;;;;5105294;27;36981;-58
2022/08/28 05:00:54;;;;;;;5.68;1.75;;;14.90;99.90;;;;;;5106262;27;38554;-59
2022/08/28 05:03:22;;;;;;;7.57;1.90;;;14.90;99.90;;;;;;5105154;27;37270;-58
2022/08/28 05:05:52;;;;;;;6.80;1.63;;;15.00;99.90;;;;;;5105010;27;36545;-58
2022/08/28 05:08:23;;;;;;;8.73;1.70;;;15.00;99.90;;;;;;5106094;27;37718;-59
2022/08/28 05:10:51;;;;;;;8.82;2.10;;;15.10;99.90;;;;;;5104996;27;38523;-60
2022/08/28 05:13:19;;;;;;;6.82;2.28;;;15.10;99.90;;;;;;5104336;27;37106;-58
2022/08/28 05:15:49;;;;;;;7.25;1.45;;;15.10;99.90;;;;;;5104534;27;37424;-58
2022/08/28 05:18:18;;;;;;;6.97;2.20;;;15.20;99.90;;;;;;5105667;27;36366;-58
2022/08/28 05:20:47;;;;;;;6.85;1.63;;;15.20;99.90;;;;;;5104835;27;37537;-60
2022/08/28 05:23:17;;;;;;;5.35;1.65;;;15.30;99.90;;;;;;5105656;27;37302;-58
2022/08/28 05:25:47;;;;;;;9.93;2.40;;;15.40;99.90;;;;;;5104726;27;37444;-59
2022/08/28 05:28:17;;;;;;;11.77;2.53;;;15.50;99.90;;;;;;5103975;27;37469;-60
2022/08/28 05:30:44;;;;;;;9.35;1.60;;;15.70;99.90;;;;;;5103880;27;37976;-59
2022/08/28 05:33:14;;;;;;;11.27;1.90;;;15.80;99.90;;;;;;5105053;27;37478;-59
2022/08/28 05:35:45;;;;;;;9.25;2.05;;;16.00;99.90;;;;;;5104876;27;37847;-59
2022/08/28 05:38:13;;;;;;;6.80;1.85;;;16.20;99.90;;;;;;5104707;27;37411;-59
2022/08/28 05:40:42;;;;;;;8.68;1.98;;;16.50;99.90;;;;;;5104856;27;36888;-60
2022/08/28 05:43:10;;;;;;;6.35;1.73;;;16.70;99.90;;;;;;5103173;27;37452;-59
2022/08/28 05:45:39;;;;;;;6.47;1.80;;;17.10;99.90;;;;;;5103632;27;37263;-58
2022/08/28 05:48:06;;;;;;;9.32;1.70;;;17.20;99.70;;;;;;5103856;27;38406;-59
2022/08/28 05:50:36;;;;;;;4.60;1.27;;;17.10;99.60;;;;;;5104555;27;37660;-59
2022/08/28 05:53:03;;;;;;;7.80;1.70;;;17.00;99.70;;;;;;5103786;27;37200;-59
2022/08/28 05:55:31;;;;;;;6.25;1.52;;;17.00;99.90;;;;;;5104316;27;36200;-59
2022/08/28 05:58:27;;;;;;;4.50;1.25;;;17.00;99.90;;;;;;5104461;27;38006;-59
2022/08/28 06:00:47;;;;;;;8.25;1.77;;;16.90;99.90;;;;;;5102781;27;37374;-59
2022/08/28 06:03:14;;;;;;;6.28;1.75;;;16.90;99.90;;;;;;5105156;27;37288;-59
2022/08/28 06:05:41;;;;;;;6.93;1.75;;;16.80;99.90;;;;;;5104237;27;38371;-59
2022/08/28 06:08:08;;;;;;;7.85;1.73;;;16.70;99.90;;;;;;5104632;27;37972;-60
2022/08/28 06:10:43;;;;;;;9.85;2.00;;;16.70;99.90;;;;;;5103814;27;37941;-59
2022/08/28 06:13:10;;;;;;;7.35;1.85;;;16.70;99.90;;;;;;5106318;27;37424;-58
2022/08/28 06:15:42;;;;;;;7.53;1.52;;;16.60;99.90;;;;;;5107713;27;36444;-59
2022/08/28 06:18:12;;;;;;;8.95;1.60;;;16.60;99.90;;;;;;5107987;27;37563;-59
2022/08/28 06:20:41;;;;;;;7.75;1.67;;;16.70;99.90;;;;;;5108068;27;36679;-59
2022/08/28 06:23:09;;;;;;;8.45;1.70;;;16.80;99.90;;;;;;5107626;27;37425;-59
2022/08/28 06:25:38;;;;;;;12.70;1.67;;;16.80;99.90;;;;;;5107076;27;35380;-59
2022/08/28 06:28:06;;;;;;;7.10;1.63;;;16.90;99.90;;;;;;5107527;27;37328;-59
2022/08/28 06:30:36;;;;;;;9.05;1.50;;;16.90;99.90;;;;;;5107802;27;36544;-58
2022/08/28 06:33:03;;;;;;;8.80;1.50;;;17.00;99.60;;;;;;5106390;27;37386;-58
2022/08/28 06:35:33;;;;;;;10.75;2.33;;;17.00;99.50;;;;;;5107546;27;36496;-60
2022/08/28 06:38:01;;;;;;;7.70;1.95;;;17.10;99.10;;;;;;5107384;27;37473;-60
2022/08/28 06:40:29;;;;;;;7.38;1.88;;;17.20;99.00;;;;;;5107066;27;39052;-59
2022/08/28 06:42:56;;;;;;;9.27;1.67;;;17.20;98.90;;;;;;5107117;27;37519;-59
2022/08/28 06:45:23;;;;;;;7.78;1.63;;;17.30;98.70;;;;;;5106867;27;36309;-59
2022/08/28 06:47:51;;;;;;;15.10;2.45;;;17.30;98.70;;;;;;5107301;27;40064;-59
2022/08/28 06:50:18;;;;;;;10.43;1.60;;;17.40;98.50;;;;;;5105995;27;37506;-58
2022/08/28 06:52:47;;;;;;;12.20;1.90;;;17.40;98.50;;;;;;5105572;27;39648;-58
2022/08/28 06:55:14;;;;;;;6.32;1.75;;;17.50;98.50;;;;;;5108088;27;38628;-58
2022/08/28 06:57:41;;;;;;;9.18;2.30;;;17.50;98.30;;;;;;5106958;27;37754;-59
2022/08/28 07:00:10;;;;;;;5.45;1.55;;;17.50;98.20;;;;;;5107583;27;36491;-58
2022/08/28 07:02:37;;;;;;;6.70;2.05;;;17.60;98.10;;;;;;5107719;27;37348;-59
2022/08/28 07:05:07;;;;;;;8.70;1.70;;;17.60;97.80;;;;;;5107101;27;36685;-59
2022/08/28 07:07:35;;;;;;;5.13;1.58;;;17.60;97.70;;;;;;5105750;27;36291;-58
2022/08/28 07:10:04;;;;;;;6.93;1.70;;;17.70;97.70;;;;;;5106609;27;37887;-58
2022/08/28 07:12:31;;;;;;;5.72;1.83;;;17.70;97.60;;;;;;5107294;27;37335;-58
2022/08/28 07:14:59;;;;;;;9.63;1.58;;;17.70;97.00;;;;;;5106959;27;38439;-58
2022/08/28 07:17:26;;;;;;;5.18;1.50;;;17.70;96.60;;;;;;5107070;27;39308;-59
2022/08/28 07:19:53;;;;;;;10.10;1.55;;;17.80;96.40;;;;;;5107325;27;36524;-60
2022/08/28 07:22:21;;;;;;;6.50;1.65;;;17.70;95.90;;;;;;5102956;27;37155;-58
2022/08/28 07:24:49;;;;;;;6.97;1.70;;;17.80;95.80;;;;;;5106315;27;37417;-59
2022/08/28 07:27:17;;;;;;;8.77;1.65;;;17.80;95.90;;;;;;5106595;27;36491;-58
2022/08/28 07:29:45;;;;;;;7.75;1.80;;;17.80;95.80;;;;;;5107462;27;37893;-58
2022/08/28 07:32:12;;;;;;;5.70;1.48;;;17.90;95.60;;;;;;5106422;27;37817;-58
2022/08/28 07:34:40;;;;;;;9.60;1.75;;;17.90;95.50;;;;;;5105413;27;37452;-59
2022/08/28 07:37:08;;;;;;;9.75;2.13;;;18.00;95.50;;;;;;5104675;27;39333;-58
2022/08/28 07:39:36;;;;;;;16.17;1.95;;;18.10;95.80;;;;;;5105945;27;38349;-58
2022/08/28 07:42:04;;;;;;;5.93;1.83;;;18.10;95.40;;;;;;5106880;27;36205;-59
2022/08/28 07:44:50;;;;;;;9.60;2.25;;;18.10;95.40;;;;;;5106113;27;37803;-58
2022/08/28 07:47:19;;;;;;;9.32;1.83;;;18.10;95.10;;;;;;5105685;27;37893;-59
2022/08/28 07:49:47;;;;;;;8.45;2.20;;;18.20;95.10;;;;;;5107444;27;38694;-59
2022/08/28 07:52:14;;;;;;;9.48;2.00;;;18.20;95.00;;;;;;5105740;27;38298;-58
2022/08/28 07:54:41;;;;;;;8.85;2.42;;;18.30;95.30;;;;;;5106254;27;36428;-59
2022/08/28 07:57:10;;;;;;;10.85;2.42;;;18.30;95.10;;;;;;5103836;27;37101;-59
2022/08/28 07:59:39;;;;;;;7.60;1.95;;;18.30;95.10;;;;;;5105406;27;37910;-59
2022/08/28 08:02:07;;;;;;;7.95;2.25;;;18.30;94.90;;;;;;5105169;27;36867;-58
2022/08/28 08:04:35;;;;;;;5.85;1.60;;;18.30;94.90;;;;;;5103852;27;37476;-60
2022/08/28 08:07:03;;;;;;;9.90;1.75;;;18.30;94.90;;;;;;5104335;27;37561;-58
2022/08/28 08:09:31;;;;;;;7.90;1.85;;;18.40;95.00;;;;;;5103213;27;37632;-59
2022/08/28 08:12:00;;;;;;;8.68;1.92;;;18.40;94.80;;;;;;5105454;27;38262;-58
2022/08/28 08:14:27;;;;;;;9.43;1.80;;;18.50;94.50;;;;;;5104975;27;37065;-59
2022/08/28 08:16:56;;;;;;;9.40;1.60;;;18.60;94.00;;;;;;5105848;27;37684;-59
2022/08/28 08:19:23;;;;;;;11.13;1.60;;;18.50;93.30;;;;;;5105093;27;39415;-59
2022/08/28 08:21:52;;;;;;;10.00;1.50;;;18.50;93.00;;;;;;5105966;27;38633;-59
2022/08/28 08:24:21;;;;;;;7.32;1.77;;;18.30;93.10;;;;;;5104450;27;38040;-59
2022/08/28 08:26:48;;;;;;;5.07;1.67;;;18.30;93.50;;;;;;5103867;27;37556;-58
2022/08/28 08:29:16;;;;;;;5.78;1.52;;;18.40;93.20;;;;;;5103893;27;37724;-58
2022/08/28 08:31:43;;;;;;;8.27;1.55;;;18.50;92.90;;;;;;5104948;27;37253;-58
2022/08/28 08:34:12;;;;;;;6.43;1.90;;;18.60;92.90;;;;;;5104257;27;35679;-58
2022/08/28 08:36:39;;;;;;;8.77;2.20;;;18.80;92.90;;;;;;5103329;27;39063;-58
2022/08/28 08:39:08;;;;;;;7.57;1.92;;;19.10;92.60;;;;;;5105364;27;37479;-59
2022/08/28 08:41:46;;;;;;;7.18;1.77;;;19.10;92.30;;;;;;5103242;27;38361;-58
2022/08/28 08:44:22;;;;;;;5.60;1.60;;;19.00;91.60;;;;;;5104186;27;36389;-58
2022/08/28 08:46:55;;;;;;;7.30;1.50;;;19.00;91.40;;;;;;5105463;27;37502;-58
2022/08/28 08:49:25;;;;;;;;;;;19.10;90.50;;;;;;5105421;27;37220;-58
2022/08/28 08:51:59;;;;;;;5.65;1.63;;;19.20;90.40;;;;;;5102663;27;37120;-59
2022/08/28 08:54:26;;;;;;;9.57;1.75;;;19.30;90.40;;;;;;5103988;27;38093;-59
2022/08/28 08:56:56;;;;;;;7.43;1.55;;;19.40;90.20;;;;;;5104357;27;38075;-58
2022/08/28 08:59:28;;;;;;;7.18;1.55;;;19.40;89.10;;;;;;5103886;27;37338;-59
2022/08/28 09:02:04;;;;;;;11.80;2.05;;;19.50;89.20;;;;;;5104856;27;37292;-58
2022/08/28 09:04:41;;;;;;;5.30;1.70;;;19.60;89.10;;;;;;5105509;27;36957;-59
2022/08/28 09:07:16;;;;;;;8.38;1.98;;;19.70;87.40;;;;;;5104499;27;37667;-59
2022/08/28 09:09:47;;;;;;;7.40;1.73;;;19.80;86.50;;;;;;5104133;27;37544;-60
2022/08/28 09:12:18;;;;;;;5.50;1.63;;;19.80;85.70;;;;;;5104662;27;38335;-58
2022/08/28 09:14:57;;;;;;;11.30;2.50;;;19.60;85.60;;;;;;5103360;27;37049;-59
2022/08/28 09:17:31;;;;;;;6.22;1.70;;;19.50;86.30;;;;;;5104970;27;37216;-59
2022/08/28 09:20:00;;;;;;;6.57;1.58;;;19.50;86.40;;;;;;5105622;27;37629;-59
2022/08/28 09:22:27;;;;;;;7.15;2.17;;;19.60;87.10;;;;;;5104742;27;38749;-59
2022/08/28 09:24:54;;;;;;;4.47;1.42;;;19.70;86.40;;;;;;5104910;27;36373;-58
2022/08/28 09:27:25;;;;;;;8.70;1.92;;;19.70;86.10;;;;;;5103309;27;37172;-60
2022/08/28 09:29:57;;;;;;;9.27;1.83;;;19.60;86.70;;;;;;5105355;27;37491;-58
2022/08/28 09:32:30;;;;;;;6.65;1.65;;;19.60;85.90;;;;;;5104478;27;39373;-60
2022/08/28 09:35:07;;;;;;;9.10;1.80;;;19.50;85.80;;;;;;5103931;27;37868;-59
2022/08/28 09:37:36;;;;;;;10.90;1.98;;;19.60;85.40;;;;;;5102132;27;37345;-59
2022/08/28 09:43:25;;;;;;;7.57;1.67;;;19.60;85.70;;;;;;5104573;27;37752;-59
2022/08/28 09:43:27;;;;;;;8.13;1.73;;;19.80;85.90;;;;;;5077310;27;38156;-59
2022/08/28 09:45:58;;;;;;;7.00;1.65;;;20.00;84.60;;;;;;5105387;27;36621;-59
2022/08/28 09:48:32;;;;;;;4.95;1.58;;;20.10;83.20;;;;;;5107857;27;37640;-59
2022/08/28 09:51:03;;;;;;;6.15;1.63;;;20.10;84.10;;;;;;5106257;27;37312;-59
2022/08/28 09:53:33;;;;;;;3.83;1.67;;;20.20;84.50;;;;;;5107895;27;37232;-59
2022/08/28 09:56:10;;;;;;;7.15;2.17;;;20.30;84.00;;;;;;5106557;27;36526;-59
2022/08/28 09:58:40;;;;;;;5.15;1.77;;;20.30;83.50;;;;;;5106222;27;37850;-59
2022/08/28 10:01:22;;;;;;;7.57;1.65;;;20.30;82.50;;;;;;5107673;27;37820;-59
2022/08/28 10:03:58;;;;;;;5.18;1.52;;;20.30;82.00;;;;;;5107127;27;39135;-59
2022/08/28 10:06:32;;;;;;;7.05;1.90;;;20.30;82.70;;;;;;5108188;27;36745;-59
2022/08/28 10:09:18;;;;;;;5.60;1.85;;;20.20;82.70;;;;;;5104396;27;36436;-59
2022/08/28 10:11:53;;;;;;;10.77;2.58;;;20.20;83.60;;;;;;5107218;27;36506;-59
2022/08/28 10:14:37;;;;;;;9.10;1.92;;;20.10;84.20;;;;;;5107293;27;36055;-59
2022/08/28 10:17:08;;;;;;;;;;;19.90;83.70;;;;;;5108893;27;35484;-58
2022/08/28 10:19:46;;;;;;;6.78;1.73;;;19.70;82.50;;;;;;5107076;27;37508;-59
2022/08/28 10:22:27;;;;;;;6.05;1.48;;;19.70;84.50;;;;;;5107221;27;38819;-59
2022/08/28 10:25:03;;;;;;;4.90;1.55;;;19.80;84.00;;;;;;5107284;27;37287;-59
2022/08/28 10:27:53;;;;;;;7.25;2.38;;;20.00;83.40;;;;;;5105611;27;39389;-59
2022/08/28 10:30:23;;;;;;;12.95;1.83;;;20.00;81.80;;;;;;5107422;27;38550;-59
2022/08/28 10:33:16;;;;;;;5.93;1.50;;;20.10;82.30;;;;;;5106354;27;36867;-56
2022/08/28 10:35:52;;;;;;;12.02;2.33;;;20.00;81.80;;;;;;5106546;27;38221;-58
2022/08/28 10:38:29;;;;;;;7.53;1.80;;;20.00;82.20;;;;;;5105140;27;39449;-58
2022/08/28 10:41:02;;;;;;;9.98;1.95;;;20.00;82.60;;;;;;5102843;27;37703;-59
2022/08/28 10:43:34;;;;;;;7.55;2.15;;;20.20;82.80;;;;;;5107595;27;38587;-59
2022/08/28 10:46:04;;;;;;;8.40;1.60;;;20.30;83.10;;;;;;5105858;27;38935;-57
2022/08/28 10:48:38;;;;;;;6.97;1.75;;;20.40;82.50;;;;;;5105857;27;35286;-57
2022/08/28 10:51:09;;;;;;;4.78;1.25;;;20.30;82.50;;;;;;5106478;27;37616;-59
2022/08/28 10:53:41;;;;;;;5.03;1.50;;;20.30;81.90;;;;;;5106841;27;38191;-57
2022/08/28 10:56:14;;;;;;;5.18;1.55;;;20.20;79.80;;;;;;5105843;27;37740;-57
2022/08/28 10:58:42;;;;;;;12.23;1.80;;;20.10;80.20;;;;;;5104478;27;36401;-58
2022/08/28 11:01:12;;;;;;;7.97;1.48;;;20.10;80.90;;;;;;5103301;27;38667;-59
2022/08/28 11:03:45;;;;;;;5.25;1.45;;;20.20;80.30;;;;;;5105525;27;37823;-57
2022/08/28 11:06:22;;;;;;;8.60;1.63;;;20.20;79.40;;;;;;5106237;27;36821;-59
2022/08/28 11:08:55;;;;;;;6.15;1.80;;;20.30;80.80;;;;;;5107640;27;38994;-56
2022/08/28 11:11:43;;;;;;;5.22;1.83;;;20.40;80.60;;;;;;5107790;27;36509;-59
2022/08/28 11:14:22;;;;;;;6.15;1.98;;;20.50;79.50;;;;;;5105470;27;39176;-57
2022/08/28 11:16:50;;;;;;;7.90;2.28;;;20.50;78.50;;;;;;5104767;27;36056;-59
2022/08/28 11:19:54;;;;;;;7.28;1.67;;;20.40;77.90;;;;;;5107654;27;35418;-59
2022/08/28 11:22:24;;;;;;;7.13;1.95;;;20.30;75.00;;;;;;5105159;27;37733;-57
2022/08/28 11:25:02;;;;;;;8.20;2.47;;;20.30;76.40;;;;;;5105102;27;37959;-59
2022/08/28 11:27:32;;;;;;;7.10;1.50;;;20.30;76.60;;;;;;5103455;27;37463;-59
2022/08/28 11:30:30;;;;;;;4.72;1.45;;;20.40;77.00;;;;;;5104985;27;36730;-59
2022/08/28 11:33:04;;;;;;;6.38;1.77;;;20.40;77.30;;;;;;5105512;27;37602;-59
2022/08/28 11:35:40;;;;;;;5.40;1.30;;;20.50;76.80;;;;;;5105137;27;38059;-60
2022/08/28 11:38:09;;;;;;;5.25;1.33;;;20.60;76.00;;;;;;5106446;27;36192;-58
2022/08/28 11:41:10;;;;;;;3.20;1.20;;;20.60;75.60;;;;;;5105435;27;38193;-59
2022/08/28 11:43:39;;;;;;;8.15;1.50;;;20.50;74.30;;;;;;5103434;27;38257;-59
2022/08/28 11:46:25;;;;;;;6.93;1.63;;;20.50;76.20;;;;;;5103861;27;37541;-59
2022/08/28 11:48:54;;;;;;;9.95;1.67;;;20.60;77.50;;;;;;5104394;27;39722;-59
2022/08/28 11:51:57;;;;;;;5.63;1.50;;;20.60;77.30;;;;;;5104243;27;36198;-59
2022/08/28 11:54:40;;;;;;;7.50;2.03;;;20.60;75.90;;;;;;5103549;27;37667;-59
2022/08/28 11:57:14;;;;;;;4.60;1.70;;;20.60;76.00;;;;;;5103899;27;39179;-59
2022/08/28 11:59:59;;;;;;;3.40;1.33;;;20.60;75.40;;;;;;5105437;27;37108;-59
2022/08/28 12:03:09;;;;;;;9.02;1.90;;;20.60;75.50;;;;;;5103964;27;36795;-59
2022/08/28 12:05:47;;;;;;;8.50;1.85;;;20.50;75.80;;;;;;5041160;28;36418;-59
2022/08/28 12:08:47;;;;;;;8.13;1.88;;;20.40;76.40;;;;;;5091863;27;36513;-59
2022/08/28 12:12:00;;;;;;;3.85;1.45;;;20.30;76.50;;;;;;5104222;27;38372;-59
2022/08/28 12:15:06;;;;;;;5.63;1.75;;;20.30;76.80;;;;;;5104450;27;36751;-59
2022/08/28 12:17:52;;;;;;;4.07;1.40;;;20.30;77.70;;;;;;5104945;27;37439;-59
2022/08/28 12:20:29;;;;;;;6.57;1.63;;;20.30;75.80;;;;;;5104711;27;36814;-59
2022/08/28 12:23:00;;;;;;;8.27;1.92;;;20.30;76.30;;;;;;5104344;27;38237;-59
2022/08/28 12:25:33;;;;;;;6.22;1.50;;;20.30;77.20;;;;;;5105058;27;37242;-59
2022/08/28 12:28:14;;;;;;;4.80;1.50;;;20.20;77.20;;;;;;5104636;27;37600;-59
2022/08/28 12:30:51;;;;;;;5.63;2.13;;;20.20;78.80;;;;;;5103873;27;37794;-59
2022/08/28 12:33:27;;;;;;;7.07;1.50;;;20.30;79.60;;;;;;5104978;27;38482;-59
2022/08/28 12:36:00;;;;;;;6.45;1.38;;;20.40;80.20;;;;;;5103524;27;37057;-57
2022/08/28 12:38:31;;;;;;;5.55;1.63;;;20.40;80.40;;;;;;5105495;27;37464;-57
2022/08/28 12:40:58;;;;;;;5.63;1.50;;;20.30;79.70;;;;;;5105970;27;36676;-59
2022/08/28 12:43:35;;;;;;;6.50;1.33;;;20.20;79.80;;;;;;5106532;27;38983;-57
2022/08/28 12:46:08;;;;;;;6.85;1.73;;;20.10;80.60;;;;;;5104724;27;36732;-58
2022/08/28 12:48:49;;;;;;;6.78;1.60;;;20.20;81.10;;;;;;5104364;27;38370;-59
2022/08/28 12:51:20;;;;;;;6.95;1.40;;;20.20;80.60;;;;;;5104853;27;38398;-57
2022/08/28 12:53:50;;;;;;;4.90;1.20;;;20.30;80.80;;;;;;5105095;27;38741;-57
2022/08/28 12:56:19;;;;;;;7.32;1.40;;;20.30;80.90;;;;;;5105113;27;36808;-57
2022/08/28 12:58:47;;;;;;;7.97;1.70;;;20.20;81.60;;;;;;5105457;27;38417;-56
2022/08/28 13:01:29;;;;;;;7.97;1.65;;;20.10;82.50;;;;;;5102782;27;38989;-57
2022/08/28 13:04:01;;;;;;;4.72;1.08;;;20.20;83.60;;;;;;5103983;27;38880;-57
2022/08/28 13:06:32;;;;;;;5.95;1.20;;;20.30;84.40;;;;;;5103371;27;37511;-57